地図

経路データ

SID SEASON NUMBER BASIN SUBBASIN NAME ISO_TIME NATURE LAT LON WMO_WIND WMO_PRES WMO_AGENCY TRACK_TYPE DIST2LAND LANDFALL IFLAG USA_AGENCY USA_ATCF_ID USA_LAT USA_LON USA_RECORD USA_STATUS USA_WIND USA_PRES USA_SSHS USA_R34_NE USA_R34_SE USA_R34_SW USA_R34_NW USA_R50_NE USA_R50_SE USA_R50_SW USA_R50_NW USA_R64_NE USA_R64_SE USA_R64_SW USA_R64_NW USA_POCI USA_ROCI USA_RMW USA_EYE TOKYO_LAT TOKYO_LON TOKYO_GRADE TOKYO_WIND TOKYO_PRES TOKYO_R50_DIR TOKYO_R50_LONG TOKYO_R50_SHORT TOKYO_R30_DIR TOKYO_R30_LONG TOKYO_R30_SHORT TOKYO_LAND CMA_LAT CMA_LON CMA_CAT CMA_WIND CMA_PRES HKO_LAT HKO_LON HKO_CAT HKO_WIND HKO_PRES NEWDELHI_LAT NEWDELHI_LON NEWDELHI_GRADE NEWDELHI_WIND NEWDELHI_PRES NEWDELHI_CI NEWDELHI_DP NEWDELHI_POCI REUNION_LAT REUNION_LON REUNION_TYPE REUNION_WIND REUNION_PRES REUNION_TNUM REUNION_CI REUNION_RMW REUNION_R34_NE REUNION_R34_SE REUNION_R34_SW REUNION_R34_NW REUNION_R50_NE REUNION_R50_SE REUNION_R50_SW REUNION_R50_NW REUNION_R64_NE REUNION_R64_SE REUNION_R64_SW REUNION_R64_NW BOM_LAT BOM_LON BOM_TYPE BOM_WIND BOM_PRES BOM_TNUM BOM_CI BOM_RMW BOM_R34_NE BOM_R34_SE BOM_R34_SW BOM_R34_NW BOM_R50_NE BOM_R50_SE BOM_R50_SW BOM_R50_NW BOM_R64_NE BOM_R64_SE BOM_R64_SW BOM_R64_NW BOM_ROCI BOM_POCI BOM_EYE BOM_POS_METHOD BOM_PRES_METHOD NADI_LAT NADI_LON NADI_CAT NADI_WIND NADI_PRES WELLINGTON_LAT WELLINGTON_LON WELLINGTON_WIND WELLINGTON_PRES DS824_LAT DS824_LON DS824_STAGE DS824_WIND DS824_PRES TD9636_LAT TD9636_LON TD9636_STAGE TD9636_WIND TD9636_PRES TD9635_LAT TD9635_LON TD9635_WIND TD9635_PRES TD9635_ROCI NEUMANN_LAT NEUMANN_LON NEUMANN_CLASS NEUMANN_WIND NEUMANN_PRES MLC_LAT MLC_LON MLC_CLASS MLC_WIND MLC_PRES USA_GUST BOM_GUST BOM_GUST_PER REUNION_GUST REUNION_GUST_PER USA_SEAHGT USA_SEARAD_NE USA_SEARAD_SE USA_SEARAD_SW USA_SEARAD_NW STORM_SPEED STORM_DIR
1966052S19041 1966 13 SI MM HILARY 1966-02-20 18:00:00 TS -19.0000 41.3000 main 292 258 O________OO___ jtwc_sh SH251966 -19.0000 41.3000 -1 -19.0000 41.3000 TC -19.0000 41.3000 7 10 124
1966052S19041 1966 13 SI MM HILARY 1966-02-20 21:00:00 TS -19.2946 41.7548 main 252 217 P________PP___ SH251966 -19.2952 41.7547 -1 -19.2952 41.7547 TC -19.2933 41.7550 7 10 125
1966052S19041 1966 13 SI MM HILARY 1966-02-21 00:00:00 TS -19.5996 42.1995 main 217 168 O________OP___ jtwc_sh SH251966 -19.6000 42.2000 -1 -19.6000 42.2000 TC -19.5987 42.1986 7 10 128
1966052S19041 1966 13 SI MM HILARY 1966-02-21 03:00:00 TS -19.9282 42.6211 main 168 109 P________PP___ SH251966 -19.9275 42.6227 -1 -19.9275 42.6227 TC -19.9298 42.6179 7 10 135
1966052S19041 1966 13 SI MM HILARY 1966-02-21 06:00:00 TS -20.3286 42.9857 reunion main 109 63 O____O___OO_O_ jtwc_sh SH251966 -20.3000 43.0000 -1 -20.5000 42.9000 2 9.90000 -20.3000 43.0000 TC 25 -20.3000 43.0000 7 -20.5000 42.9000 TC 35 11 142
1966052S19041 1966 13 SI MM HILARY 1966-02-21 09:00:00 TS -20.7754 43.3354 main 62 15 P____P___PP_P_ SH251966 -20.7274 43.3152 -1 -20.9278 43.3745 2 -20.7274 43.3152 TC 25 -20.7192 43.3367 7 -20.9278 43.3745 TC 32 11 145
1966052S19041 1966 13 SI MM HILARY 1966-02-21 12:00:00 TS -21.2626 43.6752 reunion main 10 0 O____O___OP_O_ jtwc_sh SH251966 -21.2000 43.6000 -1 -21.4000 43.8000 6 9.90000 -21.2000 43.6000 TC 25 -21.1819 43.6386 7 -21.4000 43.8000 TC 30 12 149
1966052S19041 1966 13 SI MM HILARY 1966-02-21 15:00:00 TS -21.7867 43.9994 main 0 0 P____P___PP_P_ SH251966 -21.6850 43.9002 -1 -21.9424 44.1376 6 -21.6850 43.9002 TC 25 -21.6787 43.9212 7 -21.9424 44.1376 TC 27 12 152
1966052S19041 1966 13 SI MM HILARY 1966-02-21 18:00:00 TS -22.3200 44.2800 reunion main 0 0 O____O___OO_O_ jtwc_sh SH251966 -22.2000 44.2000 -1 -22.5000 44.4000 6 9.90000 -22.2000 44.2000 TC 25 -22.2000 44.2000 7 -22.5000 44.4000 TC 25 12 154
1966052S19041 1966 13 SI MM HILARY 1966-02-21 21:00:00 TS -22.8489 44.5470 main 0 0 P____P___PP_P_ SH251966 -22.7424 44.5002 -1 -23.0074 44.6153 6 -22.7424 44.5002 TC 25 -22.7446 44.5042 7 -23.0074 44.6153 TC 25 12 156
1966052S19041 1966 13 SI MM HILARY 1966-02-22 00:00:00 TS -23.3815 44.8015 reunion main 0 0 O____O___OP_O_ jtwc_sh SH251966 -23.3000 44.8000 -1 -23.5000 44.8000 6 9.90000 -23.3000 44.8000 TC 25 -23.3074 44.8076 7 -23.5000 44.8000 TC 25 12 156
1966052S19041 1966 13 SI MM HILARY 1966-02-22 03:00:00 TS -23.9192 45.0557 main 0 0 P____P___PP_P_ SH251966 -23.8649 45.1001 -1 -23.9999 44.9853 6 -23.8649 45.1001 TC 30 -23.8665 45.1073 7 -23.9999 44.9853 TC 25 12 156
1966052S19041 1966 13 SI MM HILARY 1966-02-22 06:00:00 TS -24.4400 45.3200 reunion main 0 0 O____O___OO_O_ jtwc_sh SH251966 -24.4000 45.4000 -1 -24.5000 45.2000 6 9.90000 -24.4000 45.4000 TC 35 -24.4000 45.4000 2 -24.5000 45.2000 TC 25 11 153
1966052S19041 1966 13 SI MM HILARY 1966-02-22 09:00:00 TS -24.9242 45.6189 main 0 0 P____P___PP_P_ SH251966 -24.8650 45.7077 -1 -25.0001 45.4999 6 -24.8650 45.7077 TC 35 -24.8906 45.6790 2 -25.0001 45.4999 TC 25 11 151
1966052S19041 1966 13 SI MM HILARY 1966-02-22 12:00:00 MX -25.3904 45.9102 reunion main 10 10 O____O___OP_O_ jtwc_sh SH251966 -25.3000 46.0000 -1 -25.5000 45.8000 5 9.90000 -25.3000 46.0000 TC 35 -25.3521 45.9512 2 -25.5000 45.8000 EX 25 11 153
1966052S19041 1966 13 SI MM HILARY 1966-02-22 15:00:00 MX -25.8633 46.1389 main 63 63 P____P___PP_P_ SH251966 -25.7574 46.2503 -1 -26.0072 45.9857 5 -25.7574 46.2503 TC 35 -25.7875 46.2227 2 -26.0072 45.9857 EX 27 10 156
1966052S19041 1966 13 SI MM HILARY 1966-02-22 18:00:00 MX -26.3200 46.3800 reunion main 117 117 O____O___OO_O_ jtwc_sh SH251966 -26.2000 46.5000 -1 -26.5000 46.2000 5 9.90000 -26.2000 46.5000 TC 35 -26.2000 46.5000 2 -26.5000 46.2000 EX 30 10 150
1966052S19041 1966 13 SI MM HILARY 1966-02-22 21:00:00 MX -26.7536 46.7026 main 178 178 P____P___PP_P_ SH251966 -26.6150 46.7926 -1 -26.9726 46.5699 5 -26.6150 46.7926 TC 30 -26.5929 46.7880 2 -26.9726 46.5699 EX 30 10 144
1966052S19041 1966 13 SI MM HILARY 1966-02-23 00:00:00 MX -27.1541 47.0571 reunion main 225 225 O____O___OP_O_ jtwc_sh SH251966 -27.0000 47.1000 -1 -27.4000 47.0000 5 9.90000 -27.0000 47.1000 TC 25 -26.9707 47.0857 2 -27.4000 47.0000 EX 30 10 141
1966052S19041 1966 13 SI MM HILARY 1966-02-23 03:00:00 MX -27.5177 47.4029 main 263 263 P____P___PP_P_ SH251966 -27.3576 47.4022 -1 -27.7676 47.4098 5 -27.3576 47.4022 TC 25 -27.3381 47.3906 2 -27.7676 47.4098 EX 25 9 139
1966052S19041 1966 13 SI MM HILARY 1966-02-23 06:00:00 MX -27.8600 47.7400 reunion main 314 O____O___OO_O_ jtwc_sh SH251966 -27.7000 47.7000 -1 -28.1000 47.8000 6 9.90000 -27.7000 47.7000 TC 25 -27.7000 47.7000 1 -28.1000 47.8000 EX 20 9 139

IBTrACS Databaseについて

本データベースは、米国NOAAが公開する1842年以降の世界の熱帯低気圧のベストトラックデータアーカイブInternational Best Track Archive for Climate Stewardship (IBTrACS)を、ウェブで閲覧しやすい形式に変換したものです。

最終更新日:2021-10-08